Terminal Aerodrome Forecast
Issued by NWS

Current Version | Previous Version | Text Only | Print | Product List | Glossary On
Versions: 1 2 3 4 5 6 7 8 9 10 11 12 13 14 15 16 17
000
FTUS46 KSEW 201100
TAFPAE
TAF
KPAE 201120Z 2012/2112 18008KT P6SM SCT018 BKN050
      TEMPO 2012/2014 BKN018 BKN050
     FM201800 16005KT P6SM SCT040 BKN070
     FM202000 19006KT P6SM SCT070 SCT120
     FM210400 10003KT P6SM SCT120=

USA.gov is the U.S. government's official web portal to all federal, state and local government web resources and services.